Cleethorpes, United Kingdom
Current Conditions -  °F | °C
As of 12:50 AM on Sunday 21 Dec 2014 (Local Time) from EGXS Reporting Station
Broken Clouds Broken Clouds  
Wind Chill: 37°   Ceiling: 4300
Heat Index: 43°   Visibility: 6mi
Dew Point: 39°   Wind: 9mph
Humidity: 87%   Direction: 210°SSW
Pressure: 30.33"   Gusts: NA
Location:  53.56°N, 0.03°W
Report Text: EGXS 210050Z AUTO 21008KT 9999 // SCT037/// BKN043/// 06/04 Q1027
Loading
Personal Weather Stations






























Interactive Weather Map New forecast layout! Learn more

10-Day Weather Forecast

Advertisements
Track Severe Weather on mobile